Time,TemperatureF,DewpointF,PressureIn,WindDirection,WindDirectionDegrees,WindSpeedMPH,WindSpeedGustMPH,Humidity,HourlyPrecipIn,Conditions,Clouds,dailyrainin,SoftwareType,DateUTC
2013-01-30 00:00:00,41.5,40.4,30.27,SSE,158,2.0,5.0,96,0.05,,,0.24,Wunderground PWS Mod,2013-01-30 08:00:00,
2013-01-30 00:10:00,41.5,40.4,30.27,SSE,158,2.0,4.0,96,0.05,,,0.24,Wunderground PWS Mod,2013-01-30 08:10:00,
2013-01-30 00:20:00,41.6,40.5,30.27,SSE,158,2.0,3.0,96,0.05,,,0.24,Wunderground PWS Mod,2013-01-30 08:20:00,
2013-01-30 00:30:00,41.6,40.5,30.27,SSW,203,2.0,11.0,96,0.05,,,0.24,Wunderground PWS Mod,2013-01-30 08:30:00,
2013-01-30 00:40:00,41.8,40.7,30.27,South,180,2.0,4.0,96,0.05,,,0.24,Wunderground PWS Mod,2013-01-30 08:40:00,
2013-01-30 00:50:00,41.9,40.8,30.27,SSE,158,3.0,10.0,96,0.06,,,0.24,Wunderground PWS Mod,2013-01-30 08:50:00,
2013-01-30 01:00:00,42.1,41.0,30.27,South,180,3.0,6.0,96,0.05,,,0.24,Wunderground PWS Mod,2013-01-30 09:00:00,
2013-01-30 01:10:00,42.2,41.1,30.27,South,180,3.0,10.0,96,0.06,,,0.24,Wunderground PWS Mod,2013-01-30 09:10:00,
2013-01-30 01:20:00,42.2,41.1,30.27,SSW,203,2.0,4.0,96,0.06,,,0.24,Wunderground PWS Mod,2013-01-30 09:20:00,
2013-01-30 01:30:00,42.2,41.1,30.26,SSE,158,2.0,7.0,96,0.06,,,0.24,Wunderground PWS Mod,2013-01-30 09:30:00,
2013-01-30 01:40:00,42.2,41.1,30.26,South,180,2.0,6.0,96,0.06,,,0.24,Wunderground PWS Mod,2013-01-30 09:40:00,
2013-01-30 01:50:00,42.2,41.1,30.27,SSE,158,2.0,5.0,96,0.05,,,0.24,Wunderground PWS Mod,2013-01-30 09:50:00,
2013-01-30 02:00:00,42.2,41.1,30.27,SSE,158,2.0,4.0,96,0.05,,,0.24,Wunderground PWS Mod,2013-01-30 10:00:00,
2013-01-30 02:10:00,42.3,41.2,30.27,SE,135,2.0,7.0,96,0.05,,,0.24,Wunderground PWS Mod,2013-01-30 10:10:00,
2013-01-30 02:20:00,42.3,41.2,30.28,SSE,158,2.0,4.0,96,0.04,,,0.24,Wunderground PWS Mod,2013-01-30 10:20:00,
2013-01-30 03:00:00,42.6,41.5,30.28,SSW,203,1.0,3.0,96,0.03,,,0.24,Wunderground PWS Mod,2013-01-30 11:00:00,
2013-01-30 03:10:00,42.6,41.5,30.28,SE,135,2.0,5.0,96,0.03,,,0.24,Wunderground PWS Mod,2013-01-30 11:10:00,
2013-01-30 03:40:00,42.8,41.7,30.28,SSW,203,2.0,4.0,96,0.03,,,0.24,Wunderground PWS Mod,2013-01-30 11:40:00,
2013-01-30 04:00:00,42.8,41.7,30.28,South,180,2.0,6.0,96,0.03,,,0.24,Wunderground PWS Mod,2013-01-30 12:00:00,
2013-01-30 04:10:00,42.9,41.8,30.28,South,180,2.0,4.0,96,0.02,,,0.24,Wunderground PWS Mod,2013-01-30 12:10:00,
2013-01-30 04:20:00,42.9,41.8,30.28,SSE,158,1.0,3.0,96,0.02,,,0.24,Wunderground PWS Mod,2013-01-30 12:20:00,
2013-01-30 04:30:00,42.9,41.8,30.28,SSE,158,2.0,6.0,96,0.02,,,0.24,Wunderground PWS Mod,2013-01-30 12:30:00,
2013-01-30 04:40:00,42.9,41.8,30.28,SSE,158,2.0,6.0,96,0.02,,,0.24,Wunderground PWS Mod,2013-01-30 12:40:00,
2013-01-30 04:50:00,43.1,42.0,30.28,SSW,203,2.0,3.0,96,0.02,,,0.24,Wunderground PWS Mod,2013-01-30 12:50:00,
2013-01-30 05:00:00,43.1,42.0,30.28,South,180,2.0,6.0,96,0.01,,,0.24,Wunderground PWS Mod,2013-01-30 13:00:00,
2013-01-30 05:10:00,43.1,42.0,30.28,South,180,2.0,5.0,96,0.01,,,0.24,Wunderground PWS Mod,2013-01-30 13:10:00,
2013-01-30 05:20:00,43.1,42.0,30.28,South,180,1.0,4.0,96,0.01,,,0.24,Wunderground PWS Mod,2013-01-30 13:20:00,
2013-01-30 05:30:00,43.1,42.0,30.28,SSE,158,2.0,4.0,96,0.01,,,0.24,Wunderground PWS Mod,2013-01-30 13:30:00,
2013-01-30 05:40:00,43.1,42.0,30.28,SSE,158,2.0,6.0,96,0.01,,,0.24,Wunderground PWS Mod,2013-01-30 13:40:00,
2013-01-30 05:50:00,43.1,42.0,30.28,SSW,203,2.0,4.0,96,0.01,,,0.24,Wunderground PWS Mod,2013-01-30 13:50:00,
2013-01-30 06:00:00,43.1,42.0,30.28,SSE,158,2.0,5.0,96,0.01,,,0.24,Wunderground PWS Mod,2013-01-30 14:00:00,
2013-01-30 06:10:00,43.1,42.0,30.28,SSE,158,2.0,4.0,96,0.01,,,0.24,Wunderground PWS Mod,2013-01-30 14:10:00,
2013-01-30 06:20:00,43.2,42.1,30.29,South,180,2.0,4.0,96,0.01,,,0.24,Wunderground PWS Mod,2013-01-30 14:20:00,
2013-01-30 06:30:00,43.2,42.1,30.29,SSE,158,2.0,4.0,96,0.00,,,0.24,Wunderground PWS Mod,2013-01-30 14:30:00,
2013-01-30 06:50:00,43.3,42.2,30.28,SSE,158,2.0,4.0,96,0.00,,,0.24,Wunderground PWS Mod,2013-01-30 14:50:00,
2013-01-30 07:00:00,43.3,42.2,30.29,South,180,1.0,4.0,96,0.00,,,0.24,Wunderground PWS Mod,2013-01-30 15:00:00,
2013-01-30 07:10:00,43.3,42.2,30.29,SSE,158,2.0,3.0,96,0.01,,,0.24,Wunderground PWS Mod,2013-01-30 15:10:00,
2013-01-30 07:20:00,43.3,42.2,30.29,South,180,2.0,5.0,96,0.01,,,0.24,Wunderground PWS Mod,2013-01-30 15:20:00,
2013-01-30 07:30:00,43.3,42.2,30.30,SSE,158,2.0,6.0,96,0.01,,,0.24,Wunderground PWS Mod,2013-01-30 15:30:00,
2013-01-30 07:40:00,43.3,42.2,30.30,South,180,2.0,3.0,96,0.01,,,0.24,Wunderground PWS Mod,2013-01-30 15:40:00,
2013-01-30 07:50:00,43.5,42.4,30.30,South,180,2.0,3.0,96,0.01,,,0.24,Wunderground PWS Mod,2013-01-30 15:50:00,
2013-01-30 08:00:00,43.5,42.4,30.30,SSE,158,2.0,6.0,96,0.01,,,0.24,Wunderground PWS Mod,2013-01-30 16:00:00,
2013-01-30 08:10:00,43.5,42.4,30.30,SSE,158,2.0,4.0,96,0.00,,,0.24,Wunderground PWS Mod,2013-01-30 16:10:00,
2013-01-30 08:20:00,43.6,42.5,30.30,SSE,158,2.0,4.0,96,0.00,,,0.24,Wunderground PWS Mod,2013-01-30 16:20:00,
2013-01-30 08:30:00,43.6,42.5,30.30,South,180,2.0,4.0,96,0.00,,,0.24,Wunderground PWS Mod,2013-01-30 16:30:00,
2013-01-30 08:40:00,43.6,42.5,30.30,SSW,203,2.0,3.0,96,0.00,,,0.24,Wunderground PWS Mod,2013-01-30 16:40:00,
2013-01-30 08:50:00,43.8,42.7,30.31,SE,135,2.0,5.0,96,0.00,,,0.24,Wunderground PWS Mod,2013-01-30 16:50:00,
2013-01-30 09:00:00,43.8,42.7,30.31,SSE,158,1.0,3.0,96,0.00,,,0.24,Wunderground PWS Mod,2013-01-30 17:00:00,
2013-01-30 09:10:00,43.8,42.7,30.31,South,180,1.0,3.0,96,0.00,,,0.24,Wunderground PWS Mod,2013-01-30 17:10:00,
2013-01-30 09:20:00,43.8,42.7,30.31,SSW,203,1.0,3.0,96,0.00,,,0.24,Wunderground PWS Mod,2013-01-30 17:20:00,
2013-01-30 09:40:00,43.9,42.8,30.32,South,180,1.0,3.0,96,0.00,,,0.24,Wunderground PWS Mod,2013-01-30 17:40:00,
2013-01-30 09:50:00,44.1,43.0,30.32,SSW,203,1.0,2.0,96,0.00,,,0.24,Wunderground PWS Mod,2013-01-30 17:50:00,
2013-01-30 10:00:00,44.1,43.0,30.32,SSE,158,2.0,4.0,96,0.00,,,0.24,Wunderground PWS Mod,2013-01-30 18:00:00,
2013-01-30 10:10:00,44.1,43.0,30.32,SSE,158,2.0,5.0,96,0.00,,,0.24,Wunderground PWS Mod,2013-01-30 18:10:00,
2013-01-30 10:20:00,44.1,43.0,30.33,SE,135,1.0,3.0,96,0.00,,,0.24,Wunderground PWS Mod,2013-01-30 18:20:00,
2013-01-30 10:30:00,44.2,43.1,30.33,SSE,158,1.0,3.0,96,0.00,,,0.24,Wunderground PWS Mod,2013-01-30 18:30:00,
2013-01-30 10:40:00,44.2,43.1,30.33,SSW,203,1.0,6.0,96,0.00,,,0.24,Wunderground PWS Mod,2013-01-30 18:40:00,
2013-01-30 10:50:00,44.3,43.2,30.33,SSW,203,1.0,4.0,96,0.00,,,0.24,Wunderground PWS Mod,2013-01-30 18:50:00,
2013-01-30 11:00:00,44.5,43.4,30.33,SSW,203,1.0,3.0,96,0.00,,,0.24,Wunderground PWS Mod,2013-01-30 19:00:00,
2013-01-30 11:10:00,44.6,43.5,30.33,South,180,1.0,4.0,96,0.00,,,0.24,Wunderground PWS Mod,2013-01-30 19:10:00,
2013-01-30 11:20:00,44.8,43.7,30.33,SE,135,1.0,5.0,96,0.00,,,0.24,Wunderground PWS Mod,2013-01-30 19:20:00,
2013-01-30 11:30:00,44.9,43.8,30.33,SSE,158,1.0,3.0,96,0.00,,,0.24,Wunderground PWS Mod,2013-01-30 19:30:00,
2013-01-30 11:40:00,44.9,43.8,30.33,SSW,203,1.0,4.0,96,0.00,,,0.24,Wunderground PWS Mod,2013-01-30 19:40:00,
2013-01-30 11:50:00,45.1,44.0,30.33,South,180,1.0,4.0,96,0.00,,,0.24,Wunderground PWS Mod,2013-01-30 19:50:00,
2013-01-30 12:00:00,44.9,43.8,30.33,SSW,203,1.0,4.0,96,0.00,,,0.24,Wunderground PWS Mod,2013-01-30 20:00:00,
2013-01-30 12:10:00,45.1,44.0,30.33,SSW,203,1.0,7.0,96,0.00,,,0.24,Wunderground PWS Mod,2013-01-30 20:10:00,
2013-01-30 12:20:00,45.1,44.0,30.33,SSE,158,1.0,3.0,96,0.00,,,0.24,Wunderground PWS Mod,2013-01-30 20:20:00,
2013-01-30 12:30:00,45.2,44.1,30.33,SSW,203,1.0,3.0,96,0.00,,,0.24,Wunderground PWS Mod,2013-01-30 20:30:00,
2013-01-30 12:40:00,45.1,44.0,30.33,South,180,1.0,2.0,96,0.00,,,0.24,Wunderground PWS Mod,2013-01-30 20:40:00,
2013-01-30 12:50:00,45.2,44.1,30.33,SE,135,1.0,2.0,96,0.00,,,0.24,Wunderground PWS Mod,2013-01-30 20:50:00,
2013-01-30 13:00:00,45.2,44.4,30.33,SSW,203,1.0,3.0,97,0.01,,,0.24,Wunderground PWS Mod,2013-01-30 21:00:00,
2013-01-30 13:10:00,45.2,44.4,30.33,SSE,158,1.0,3.0,97,0.01,,,0.24,Wunderground PWS Mod,2013-01-30 21:10:00,
2013-01-30 13:20:00,45.2,44.4,30.32,SSE,158,1.0,3.0,97,0.01,,,0.24,Wunderground PWS Mod,2013-01-30 21:20:00,
2013-01-30 13:30:00,45.1,44.3,30.32,South,180,1.0,3.0,97,0.01,,,0.24,Wunderground PWS Mod,2013-01-30 21:30:00,
2013-01-30 13:40:00,45.1,44.0,30.32,SSE,158,2.0,4.0,96,0.01,,,0.24,Wunderground PWS Mod,2013-01-30 21:40:00,
2013-01-30 13:50:00,45.1,44.0,30.32,South,180,1.0,3.0,96,0.01,,,0.24,Wunderground PWS Mod,2013-01-30 21:50:00,
2013-01-30 14:00:00,45.1,44.0,30.32,South,180,1.0,3.0,96,0.00,,,0.24,Wunderground PWS Mod,2013-01-30 22:00:00,
2013-01-30 14:10:00,45.1,44.0,30.32,South,180,1.0,2.0,96,0.00,,,0.24,Wunderground PWS Mod,2013-01-30 22:10:00,
2013-01-30 14:20:00,45.1,44.0,30.31,SSE,158,0.0,2.0,96,0.00,,,0.24,Wunderground PWS Mod,2013-01-30 22:20:00,
2013-01-30 14:40:00,45.1,44.0,30.32,South,180,1.0,3.0,96,0.00,,,0.24,Wunderground PWS Mod,2013-01-30 22:40:00,
2013-01-30 14:50:00,45.1,44.0,30.31,SSE,158,1.0,2.0,96,0.00,,,0.24,Wunderground PWS Mod,2013-01-30 22:50:00,
2013-01-30 15:00:00,45.1,44.0,30.31,SSE,158,0.0,2.0,96,0.00,,,0.24,Wunderground PWS Mod,2013-01-30 23:00:00,
2013-01-30 15:10:00,45.1,44.0,30.31,SSE,158,0.0,1.0,96,0.00,,,0.24,Wunderground PWS Mod,2013-01-30 23:10:00,
2013-01-30 15:20:00,45.1,44.0,30.31,SSE,158,0.0,2.0,96,0.00,,,0.24,Wunderground PWS Mod,2013-01-30 23:20:00,
2013-01-30 15:30:00,45.2,44.1,30.32,SSE,158,0.0,2.0,96,0.00,,,0.24,Wunderground PWS Mod,2013-01-30 23:30:00,
2013-01-30 15:40:00,45.2,44.1,30.32,SSE,158,1.0,2.0,96,0.00,,,0.24,Wunderground PWS Mod,2013-01-30 23:40:00,
2013-01-30 15:50:00,45.2,44.1,30.31,WSW,248,0.0,1.0,96,0.00,,,0.24,Wunderground PWS Mod,2013-01-30 23:50:00,
2013-01-30 16:00:00,45.2,44.4,30.32,SSW,203,0.0,2.0,97,0.01,,,0.24,Wunderground PWS Mod,2013-01-31 00:00:00,
2013-01-30 16:10:00,45.2,44.4,30.32,SSW,203,0.0,1.0,97,0.01,,,0.24,Wunderground PWS Mod,2013-01-31 00:10:00,
2013-01-30 16:20:00,45.1,44.0,30.32,SSW,203,1.0,2.0,96,0.01,,,0.24,Wunderground PWS Mod,2013-01-31 00:20:00,
2013-01-30 16:30:00,45.1,44.3,30.31,SW,225,1.0,3.0,97,0.01,,,0.24,Wunderground PWS Mod,2013-01-31 00:30:00,
2013-01-30 16:40:00,45.1,44.0,30.31,SW,225,1.0,3.0,96,0.01,,,0.24,Wunderground PWS Mod,2013-01-31 00:40:00,
2013-01-30 16:50:00,45.1,44.3,30.31,SW,225,1.0,2.0,97,0.01,,,0.24,Wunderground PWS Mod,2013-01-31 00:50:00,
2013-01-30 17:00:00,45.1,44.0,30.31,South,180,0.0,2.0,96,0.00,,,0.24,Wunderground PWS Mod,2013-01-31 01:00:00,
2013-01-30 17:10:00,45.1,44.0,30.31,South,180,0.0,3.0,96,0.00,,,0.24,Wunderground PWS Mod,2013-01-31 01:10:00,
2013-01-30 17:20:00,45.1,44.0,30.32,South,180,0.0,2.0,96,0.00,,,0.24,Wunderground PWS Mod,2013-01-31 01:20:00,
2013-01-30 17:30:00,45.1,44.3,30.31,South,180,0.0,1.0,97,0.00,,,0.24,Wunderground PWS Mod,2013-01-31 01:30:00,
2013-01-30 17:40:00,45.1,44.3,30.31,South,180,0.0,2.0,97,0.00,,,0.24,Wunderground PWS Mod,2013-01-31 01:40:00,
2013-01-30 17:50:00,45.1,44.3,30.31,SW,225,0.0,3.0,97,0.00,,,0.24,Wunderground PWS Mod,2013-01-31 01:50:00,
2013-01-30 18:00:00,45.1,44.0,30.31,SE,135,1.0,3.0,96,0.00,,,0.24,Wunderground PWS Mod,2013-01-31 02:00:00,
2013-01-30 18:30:00,45.1,44.3,30.31,SSW,203,1.0,3.0,97,0.01,,,0.24,Wunderground PWS Mod,2013-01-31 02:30:00,
2013-01-30 18:40:00,45.1,44.3,30.31,South,180,1.0,2.0,97,0.01,,,0.24,Wunderground PWS Mod,2013-01-31 02:40:00,
2013-01-30 18:50:00,45.1,44.3,30.31,South,180,1.0,2.0,97,0.01,,,0.24,Wunderground PWS Mod,2013-01-31 02:50:00,
2013-01-30 19:10:00,45.1,44.3,30.30,South,180,1.0,3.0,97,0.00,,,0.24,Wunderground PWS Mod,2013-01-31 03:10:00,
2013-01-30 19:30:00,45.1,44.0,30.31,South,180,0.0,1.0,96,0.00,,,0.24,Wunderground PWS Mod,2013-01-31 03:30:00,
2013-01-30 19:40:00,45.1,44.3,30.31,SW,225,1.0,3.0,97,0.00,,,0.24,Wunderground PWS Mod,2013-01-31 03:40:00,
2013-01-30 19:50:00,45.1,44.3,30.31,SE,135,0.0,3.0,97,0.00,,,0.24,Wunderground PWS Mod,2013-01-31 03:50:00,
2013-01-30 20:10:00,44.9,43.8,30.31,South,180,1.0,3.0,96,0.00,,,0.24,Wunderground PWS Mod,2013-01-31 04:10:00,
2013-01-30 20:20:00,44.9,44.1,30.31,SSE,158,1.0,2.0,97,0.00,,,0.24,Wunderground PWS Mod,2013-01-31 04:20:00,
2013-01-30 20:30:00,44.9,44.1,30.31,SSE,158,1.0,3.0,97,0.00,,,0.24,Wunderground PWS Mod,2013-01-31 04:30:00,
2013-01-30 20:40:00,44.9,44.1,30.31,WSW,248,1.0,3.0,97,0.00,,,0.24,Wunderground PWS Mod,2013-01-31 04:40:00,
2013-01-30 20:50:00,44.8,44.0,30.31,SE,135,1.0,5.0,97,0.00,,,0.24,Wunderground PWS Mod,2013-01-31 04:50:00,
2013-01-30 21:10:00,44.6,43.8,30.31,SSE,158,1.0,3.0,97,0.00,,,0.24,Wunderground PWS Mod,2013-01-31 05:10:00,
2013-01-30 21:30:00,44.6,43.8,30.31,SSE,158,1.0,3.0,97,0.00,,,0.24,Wunderground PWS Mod,2013-01-31 05:30:00,
2013-01-30 21:40:00,44.6,43.5,30.31,SSE,158,1.0,4.0,96,0.00,,,0.24,Wunderground PWS Mod,2013-01-31 05:40:00,
2013-01-30 21:50:00,44.5,43.7,30.31,SSE,158,1.0,2.0,97,0.00,,,0.24,Wunderground PWS Mod,2013-01-31 05:50:00,
2013-01-30 22:00:00,44.5,43.4,30.32,SE,135,1.0,3.0,96,0.00,,,0.24,Wunderground PWS Mod,2013-01-31 06:00:00,
2013-01-30 22:10:00,44.5,43.4,30.32,SSE,158,1.0,3.0,96,0.00,,,0.24,Wunderground PWS Mod,2013-01-31 06:10:00,
2013-01-30 22:20:00,44.3,43.5,30.32,SE,135,1.0,4.0,97,0.01,,,0.24,Wunderground PWS Mod,2013-01-31 06:20:00,
2013-01-30 22:30:00,44.3,43.5,30.31,South,180,1.0,3.0,97,0.01,,,0.24,Wunderground PWS Mod,2013-01-31 06:30:00,
2013-01-30 22:40:00,44.2,43.1,30.31,SSE,158,1.0,3.0,96,0.01,,,0.24,Wunderground PWS Mod,2013-01-31 06:40:00,
2013-01-30 22:50:00,44.2,43.1,30.31,SSE,158,1.0,3.0,96,0.01,,,0.24,Wunderground PWS Mod,2013-01-31 06:50:00,
2013-01-30 23:00:00,44.2,43.4,30.31,SSE,158,1.0,4.0,97,0.01,,,0.24,Wunderground PWS Mod,2013-01-31 07:00:00,
2013-01-30 23:10:00,44.2,43.4,30.31,SSE,158,1.0,3.0,97,0.01,,,0.24,Wunderground PWS Mod,2013-01-31 07:10:00,
2013-01-30 23:20:00,44.1,43.0,30.31,SSE,158,1.0,2.0,96,0.00,,,0.24,Wunderground PWS Mod,2013-01-31 07:20:00,
2013-01-30 23:30:00,44.1,43.3,30.32,ESE,113,1.0,2.0,97,0.00,,,0.24,Wunderground PWS Mod,2013-01-31 07:30:00,
2013-01-30 23:40:00,44.1,43.0,30.32,SSE,158,1.0,3.0,96,0.00,,,0.24,Wunderground PWS Mod,2013-01-31 07:40:00,